Idaho City, Idaho
Current Conditions -  °F | °C
As of 11:53 AM on Friday 21 Nov 2014 (Local Time) from KBOI Reporting Station
Haze Haze  
Wind Chill: 25°   Ceiling: 7000
Heat Index: 33°   Visibility: 4mi
Dew Point: 26°   Wind: 9mph
Humidity: 75%   Direction: 180°S
Pressure: 30.04"   Gusts: NA
Location:  43.83°N, 115.83°W
Report Text: KBOI 211853Z 18008KT 4SM HZ OVC070 01/M03 A3004 RMK AO2 SLP194 T00061033
Loading
Personal Weather Stations






























Interactive Weather Map New forecast layout! Learn more

10-Day Weather Forecast

Advertisements
Track Severe Weather on mobile